Terminal Aerodrome Forecast
Issued by NWS

Home | Current Version | Previous Version | Text Only | Print | Product List | Glossary On
Versions: 1 2 3 4 5 6 7 8 9 10 11 12 13 14 15 16
377
FTUS44 KLZK 311742
TAFBPK
TAF
KBPK 311742Z 3118/0118 13007KT P6SM OVC035
     FM010000 15007KT P6SM VCSH BKN040
     FM010300 16005KT P6SM VCTS SCT040 BKN060CB
      TEMPO 0104/0108 -TSRA BKN030CB=

USA.gov is the U.S. government's official web portal to all federal, state and local government web resources and services.